NRT weather

Narita International Airport
Tokyo, Chiba Prefecture, Japan

Public forecast

Using degrees Celsius for public forecast. Weather courtesy of forecast.io.

Current aviation weather report (METAR) for Narita International Airport

Retrieved 2019/10/23 01:30 UTC (0 seconds ago):

RJAA 230130Z 33008KT 270V360 9999 FEW030 21/14 Q1016 NOSIG

Aviation forecast (TAF) for Narita International Airport

Retrieved 2019-10-23 00:00 UTC (1 hour ago):

TAF RJAA 222305Z 2300/2406 03008KT 9999 FEW030 BECMG 2304/2306 08008KT BECMG 2310/2312 04006KT BECMG 2403/2406 04016KT